Time;durP1;ratioP1;P1;durP2;ratioP2;P2;SDS_P1;SDS_P2;PMS_P1;PMS_P2;Temp;Humidity;BMP_temperature;BMP_pressure;BME280_temperature;BME280_humidity;BME280_pressure;Samples;Min_cycle;Max_cycle;Signal;HPM_P1;HPM_P2
2022/09/06 00:00:17;;;;;;;2.75;2.28;;;;;;;20.65;56.81;99514.22;343429;28;1987;-66
2022/09/06 00:00:29;;;;;;;4.35;2.47;;;;;;;20.65;56.29;99519.50;341175;28;1004;-66
2022/09/06 00:00:42;;;;;;;4.88;2.60;;;;;;;20.67;56.32;99522.03;341109;28;1574;-66
2022/09/06 00:00:54;;;;;;;5.30;2.60;;;;;;;20.68;56.53;99519.25;341200;28;1885;-66
2022/09/06 00:01:14;;;;;;;3.53;2.70;;;;;;;20.68;56.25;99521.91;342861;28;1777;-66
2022/09/06 00:01:26;;;;;;;3.10;2.80;;;;;;;20.68;56.08;99519.25;341089;28;1162;-67
2022/09/06 00:01:38;;;;;;;3.33;2.75;;;;;;;20.68;56.39;99513.97;340902;28;1818;-66
2022/09/06 00:01:50;;;;;;;3.92;2.70;;;;;;;20.67;56.02;99517.59;341202;28;1354;-66
2022/09/06 00:02:02;;;;;;;3.72;2.55;;;;;;;20.67;56.31;99511.47;341145;28;1119;-66
2022/09/06 00:02:14;;;;;;;4.32;2.47;;;;;;;20.67;56.19;99519.41;342155;28;1165;-66
2022/09/06 00:02:32;;;;;;;4.40;2.40;;;;;;;20.65;56.43;99519.50;341232;28;1107;-67
2022/09/06 00:02:44;;;;;;;4.13;2.42;;;;;;;20.65;56.61;99513.41;341279;28;987;-66
2022/09/06 00:02:56;;;;;;;3.60;2.40;;;;;;;20.64;56.53;99517.81;341587;28;1769;-66
2022/09/06 00:03:09;;;;;;;2.78;2.30;;;;;;;20.63;56.08;99521.44;342850;28;1987;-67
2022/09/06 00:03:21;;;;;;;2.50;2.30;;;;;;;20.62;56.18;99509.16;342355;28;1255;-66
2022/09/06 00:03:33;;;;;;;2.60;2.40;;;;;;;20.60;56.33;99521.66;342412;28;1110;-66
2022/09/06 00:03:45;;;;;;;6.13;2.40;;;;;;;20.60;56.34;99519.00;342616;28;1019;-66
2022/09/06 00:03:57;;;;;;;6.25;2.35;;;;;;;20.60;56.47;99512.88;342162;28;1788;-66
2022/09/06 00:04:09;;;;;;;6.28;2.30;;;;;;;20.60;56.40;99511.09;343092;28;1923;-66
2022/09/06 00:04:26;;;;;;;3.70;2.38;;;;;;;20.60;56.46;99516.38;341276;28;1100;-66
2022/09/06 00:04:38;;;;;;;3.47;2.30;;;;;;;20.60;56.30;99518.16;341916;28;1810;-66
2022/09/06 00:04:50;;;;;;;2.88;2.15;;;;;;;20.59;56.79;99511.22;342511;28;2010;-66
2022/09/06 00:05:03;;;;;;;2.70;2.15;;;;;;;20.58;56.79;99518.25;342678;28;1834;-66
2022/09/06 00:05:15;;;;;;;2.80;2.40;;;;;;;20.57;56.59;99521.88;341674;28;2177;-66
2022/09/06 00:05:29;;;;;;;3.55;2.60;;;;;;;20.57;56.42;99516.59;342559;28;1101;-66
2022/09/06 00:05:42;;;;;;;4.22;2.50;;;;;;;20.58;56.31;99518.25;341976;28;1747;-66
2022/09/06 00:05:54;;;;;;;4.25;2.47;;;;;;;20.58;56.63;99514.78;343333;28;1894;-66
2022/09/06 00:06:09;;;;;;;4.85;2.72;;;;;;;20.57;56.59;99516.59;343696;28;1103;-66
2022/09/06 00:06:21;;;;;;;4.90;2.78;;;;;;;20.59;56.69;99514.69;341724;28;1323;-66
2022/09/06 00:06:34;;;;;;;3.97;2.80;;;;;;;20.60;56.66;99515.53;342399;28;1091;-66
2022/09/06 00:06:46;;;;;;;3.00;2.70;;;;;;;20.59;56.40;99514.69;342147;28;1843;-66
2022/09/06 00:06:58;;;;;;;2.95;2.50;;;;;;;20.60;56.16;99513.72;343497;28;1882;-66
2022/09/06 00:07:09;;;;;;;3.60;2.63;;;;;;;20.59;56.19;99513.88;343255;28;1285;-66
2022/09/06 00:07:21;;;;;;;4.28;2.50;;;;;;;20.57;57.19;99515.75;342372;28;1350;-66
2022/09/06 00:07:34;;;;;;;3.72;2.30;;;;;;;20.51;58.00;99512.59;342579;28;1035;-66
2022/09/06 00:07:46;;;;;;;2.90;2.30;;;;;;;20.50;57.34;99512.72;342485;28;1047;-66
2022/09/06 00:08:02;;;;;;;2.92;2.40;;;;;;;20.50;56.50;99523.28;342075;28;1791;-66
2022/09/06 00:08:14;;;;;;;3.53;2.50;;;;;;;20.52;56.29;99518.72;341411;28;1257;-66
2022/09/06 00:08:26;;;;;;;4.18;2.50;;;;;;;20.53;56.38;99509.84;341363;28;1106;-66
2022/09/06 00:08:39;;;;;;;3.85;2.40;;;;;;;20.54;56.09;99516.81;343359;28;2019;-66
2022/09/06 00:08:51;;;;;;;5.03;2.47;;;;;;;20.54;55.99;99511.53;343613;28;1167;-67
2022/09/06 00:09:03;;;;;;;5.13;2.60;;;;;;;20.54;55.65;99516.81;343352;28;1095;-66
2022/09/06 00:09:15;;;;;;;3.65;2.53;;;;;;;20.53;55.84;99515.13;342329;28;1250;-66
2022/09/06 00:09:27;;;;;;;3.88;2.70;;;;;;;20.53;55.84;99520.41;342053;28;1090;-66
2022/09/06 00:09:39;;;;;;;4.38;2.60;;;;;;;20.51;55.95;99519.69;342323;28;1070;-66
2022/09/06 00:09:51;;;;;;;4.60;2.70;;;;;;;20.51;55.85;99517.06;341863;28;1822;-66
2022/09/06 00:10:03;;;;;;;4.88;2.63;;;;;;;20.49;56.29;99516.31;342605;28;1959;-66
2022/09/06 00:10:15;;;;;;;4.97;2.70;;;;;;;20.45;56.27;99517.53;343667;28;1075;-66
2022/09/06 00:10:28;;;;;;;4.15;2.53;;;;;;;20.42;56.12;99507.19;340904;28;1711;-66
2022/09/06 00:10:41;;;;;;;3.80;2.50;;;;;;;20.43;56.54;99511.50;341459;28;1054;-66
2022/09/06 00:10:57;;;;;;;2.95;2.30;;;;;;;20.45;56.47;99514.88;341296;28;1852;-66
2022/09/06 00:11:13;;;;;;;2.83;2.30;;;;;;;20.47;56.37;99507.69;342847;28;1897;-66
2022/09/06 00:11:25;;;;;;;3.05;2.50;;;;;;;20.46;56.61;99509.47;341271;28;1370;-66
2022/09/06 00:11:37;;;;;;;3.28;2.53;;;;;;;20.45;56.79;99512.25;343713;28;1710;-66
2022/09/06 00:11:49;;;;;;;3.42;2.35;;;;;;;20.43;56.63;99511.50;343815;28;1191;-66
2022/09/06 00:12:01;;;;;;;3.22;2.50;;;;;;;20.41;56.93;99506.34;342612;28;1702;-66
2022/09/06 00:12:13;;;;;;;3.28;2.63;;;;;;;20.40;57.30;99514.38;342849;28;1967;-66
2022/09/06 00:12:26;;;;;;;3.13;2.65;;;;;;;20.38;57.29;99506.56;341327;28;1337;-66
2022/09/06 00:12:38;;;;;;;2.92;2.58;;;;;;;20.35;57.20;99507.66;341329;28;1240;-66
2022/09/06 00:12:50;;;;;;;3.03;2.45;;;;;;;20.33;57.30;99503.44;341393;28;1413;-66
2022/09/06 00:13:04;;;;;;;4.50;2.40;;;;;;;20.34;57.48;99503.34;342752;28;1539;-66
2022/09/06 00:13:16;;;;;;;5.50;2.40;;;;;;;20.34;57.06;99513.91;341641;28;1132;-66
2022/09/06 00:13:28;;;;;;;4.43;2.35;;;;;;;20.34;56.87;99505.13;342415;28;1808;-66
2022/09/06 00:13:40;;;;;;;4.47;2.40;;;;;;;20.32;56.70;99502.63;342716;28;1780;-66
2022/09/06 00:13:52;;;;;;;3.47;2.40;;;;;;;20.30;56.74;99509.81;340899;28;1358;-66
2022/09/06 00:14:04;;;;;;;3.78;2.50;;;;;;;20.31;56.58;99505.38;341185;28;1703;-66
2022/09/06 00:14:16;;;;;;;4.82;2.50;;;;;;;20.30;56.65;99504.53;342483;28;1266;-66
2022/09/06 00:14:28;;;;;;;4.93;2.47;;;;;;;20.33;56.72;99514.84;341581;28;2243;-66
2022/09/06 00:14:40;;;;;;;3.17;2.42;;;;;;;20.35;56.68;99501.53;342163;28;1649;-66
2022/09/06 00:14:53;;;;;;;2.72;2.33;;;;;;;20.38;56.84;99500.44;341854;28;2068;-66
2022/09/06 00:15:05;;;;;;;2.60;2.40;;;;;;;20.39;56.84;99502.16;342814;28;1467;-66
2022/09/06 00:15:17;;;;;;;3.90;2.40;;;;;;;20.41;56.69;99502.88;342637;28;1372;-66
2022/09/06 00:15:30;;;;;;;4.55;2.42;;;;;;;20.42;56.72;99505.38;342773;28;1110;-66
2022/09/06 00:15:42;;;;;;;3.75;2.53;;;;;;;20.42;56.45;99508.00;342050;28;1829;-66
2022/09/06 00:15:55;;;;;;;3.45;2.63;;;;;;;20.40;56.35;99507.28;341405;28;2063;-66
2022/09/06 00:16:13;;;;;;;2.95;2.60;;;;;;;20.38;56.43;99511.00;342145;28;1561;-66
2022/09/06 00:16:25;;;;;;;3.78;2.45;;;;;;;20.38;56.03;99503.09;342474;28;1432;-66
2022/09/06 00:16:41;;;;;;;5.10;2.22;;;;;;;20.37;55.30;99506.69;342405;28;1080;-66
2022/09/06 00:16:53;;;;;;;4.45;2.20;;;;;;;20.34;55.41;99500.69;339622;28;2138;-66
2022/09/06 00:17:05;;;;;;;6.10;2.47;;;;;;;20.32;55.51;99507.03;340796;29;1351;-66
2022/09/06 00:17:17;;;;;;;6.07;2.53;;;;;;;20.28;55.51;99498.53;340839;29;1391;-65
2022/09/06 00:17:30;;;;;;;5.28;2.50;;;;;;;20.27;55.59;99501.28;340726;29;1016;-66
2022/09/06 00:17:43;;;;;;;4.75;2.45;;;;;;;20.25;55.56;99500.53;341347;28;1024;-66
2022/09/06 00:18:03;;;;;;;4.70;2.67;;;;;;;20.21;55.73;99499.94;341835;28;1912;-66
2022/09/06 00:18:15;;;;;;;3.85;2.55;;;;;;;20.18;55.79;99500.13;341592;28;1740;-66
2022/09/06 00:18:27;;;;;;;2.92;2.45;;;;;;;20.19;55.76;99501.00;342508;28;1809;-66
2022/09/06 00:18:39;;;;;;;3.00;2.40;;;;;;;20.17;55.83;99503.75;342834;28;1192;-66
2022/09/06 00:18:53;;;;;;;2.97;2.25;;;;;;;20.17;56.06;99503.75;343574;28;1871;-66
2022/09/06 00:19:05;;;;;;;3.22;2.35;;;;;;;20.18;56.18;99508.06;342394;28;1745;-65
2022/09/06 00:19:17;;;;;;;4.40;2.45;;;;;;;20.16;56.02;99499.41;343474;28;1376;-66
2022/09/06 00:19:29;;;;;;;4.90;2.38;;;;;;;20.15;56.30;99501.22;342761;28;1062;-66
2022/09/06 00:19:41;;;;;;;3.75;2.30;;;;;;;20.15;56.41;99500.38;342775;28;1078;-66
2022/09/06 00:19:53;;;;;;;3.92;2.45;;;;;;;20.15;56.33;99505.66;342405;28;1736;-66
2022/09/06 00:20:08;;;;;;;4.15;2.65;;;;;;;20.12;56.42;99501.47;342500;28;1893;-65
2022/09/06 00:20:20;;;;;;;2.97;2.40;;;;;;;20.12;56.59;99505.88;343161;28;1254;-66
2022/09/06 00:20:33;;;;;;;2.50;2.30;;;;;;;20.10;56.68;99506.03;342513;28;1131;-66
2022/09/06 00:20:45;;;;;;;2.40;2.20;;;;;;;20.11;56.82;99507.69;342243;28;1058;-68
2022/09/06 00:20:57;;;;;;;4.30;2.25;;;;;;;20.09;56.85;99506.13;342058;28;1906;-66
2022/09/06 00:21:27;;;;;;;5.00;2.40;;;;;;;20.01;57.27;99503.22;342300;28;2473;-66
2022/09/06 00:21:40;;;;;;;3.40;2.40;;;;;;;20.00;57.26;99506.78;340975;28;1106;-67
2022/09/06 00:21:52;;;;;;;2.95;2.35;;;;;;;20.00;57.02;99501.53;342198;28;1656;-66
2022/09/06 00:22:04;;;;;;;2.50;2.30;;;;;;;20.00;57.22;99506.78;342674;28;1895;-66
2022/09/06 00:22:16;;;;;;;4.88;2.35;;;;;;;20.00;57.46;99507.66;341667;28;1801;-66
2022/09/06 00:22:28;;;;;;;4.80;2.40;;;;;;;20.01;57.32;99504.06;342434;28;1106;-66
2022/09/06 00:22:40;;;;;;;4.50;2.50;;;;;;;20.04;57.18;99502.97;342553;28;1199;-66
2022/09/06 00:22:57;;;;;;;3.45;2.40;;;;;;;20.04;57.05;99502.97;342067;28;1790;-66
2022/09/06 00:23:09;;;;;;;2.63;2.30;;;;;;;20.06;57.00;99506.34;342860;28;1902;-66
2022/09/06 00:23:21;;;;;;;2.78;2.40;;;;;;;20.06;56.91;99506.34;342503;28;1281;-66
2022/09/06 00:23:33;;;;;;;2.70;2.20;;;;;;;20.07;57.17;99510.69;343845;28;1052;-66
2022/09/06 00:23:46;;;;;;;2.70;2.20;;;;;;;20.06;57.20;99508.97;343644;28;1024;-66
2022/09/06 00:23:58;;;;;;;3.95;2.35;;;;;;;20.08;57.01;99504.44;342449;28;2306;-66
2022/09/06 00:24:10;;;;;;;4.75;2.50;;;;;;;20.09;56.89;99506.13;342807;28;1867;-66
2022/09/06 00:24:22;;;;;;;5.10;2.58;;;;;;;20.09;57.05;99508.75;342227;28;1328;-66
2022/09/06 00:24:35;;;;;;;4.07;2.40;;;;;;;20.07;57.04;99510.69;341896;28;2152;-66
2022/09/06 00:24:47;;;;;;;3.60;2.50;;;;;;;20.06;57.32;99512.47;341071;28;1195;-66
2022/09/06 00:24:59;;;;;;;3.83;2.58;;;;;;;20.08;57.08;99515.84;342154;28;1951;-66
2022/09/06 00:25:11;;;;;;;2.72;2.40;;;;;;;20.06;57.09;99507.22;342796;28;1925;-66
2022/09/06 00:25:24;;;;;;;2.78;2.17;;;;;;;20.07;57.18;99508.03;341526;28;1951;-66
2022/09/06 00:25:36;;;;;;;2.72;2.22;;;;;;;20.07;57.13;99508.03;341303;29;919;-66
2022/09/06 00:25:48;;;;;;;2.85;2.40;;;;;;;20.07;57.37;99502.75;342032;28;1909;-66
2022/09/06 00:26:02;;;;;;;2.90;2.40;;;;;;;20.07;57.27;99502.75;343347;28;1818;-66
2022/09/06 00:26:14;;;;;;;3.20;2.50;;;;;;;20.07;57.23;99500.13;343139;28;1085;-67
2022/09/06 00:26:26;;;;;;;3.08;2.40;;;;;;;20.06;57.38;99507.22;342360;28;1119;-66
2022/09/06 00:26:38;;;;;;;3.28;2.40;;;;;;;20.06;57.30;99508.97;342414;28;1288;-67
2022/09/06 00:26:50;;;;;;;3.60;2.40;;;;;;;20.05;57.90;99509.94;343835;28;1098;-67
2022/09/06 00:27:04;;;;;;;3.97;2.55;;;;;;;20.02;58.46;99502.25;342424;28;1693;-66
2022/09/06 00:27:16;;;;;;;4.32;2.65;;;;;;;20.03;58.14;99502.13;342355;28;1299;-67
2022/09/06 00:27:28;;;;;;;5.55;2.95;;;;;;;19.93;58.86;99504.63;341230;28;1156;-67
2022/09/06 00:27:39;;;;;;;4.93;2.85;;;;;;;19.97;59.02;99501.75;340993;28;1914;-66
2022/09/06 00:27:54;;;;;;;4.00;2.80;;;;;;;19.93;58.99;99506.41;340935;28;1791;-67
2022/09/06 00:28:06;;;;;;;5.03;2.78;;;;;;;19.93;59.20;99507.25;342808;28;1774;-66
2022/09/06 00:28:18;;;;;;;4.60;2.83;;;;;;;19.95;59.34;99510.63;343017;28;1330;-67
2022/09/06 00:28:30;;;;;;;3.78;2.70;;;;;;;19.98;58.95;99504.28;341354;28;1287;-67
2022/09/06 00:28:43;;;;;;;3.78;2.70;;;;;;;20.01;58.71;99509.34;341302;28;1091;-66
2022/09/06 00:28:55;;;;;;;3.00;2.60;;;;;;;20.02;58.54;99504.88;341468;28;2344;-66
2022/09/06 00:29:07;;;;;;;3.60;2.80;;;;;;;20.04;58.64;99503.84;342488;28;1253;-67
2022/09/06 00:29:19;;;;;;;3.35;2.88;;;;;;;20.04;58.52;99503.84;342733;28;1307;-66
2022/09/06 00:29:31;;;;;;;3.17;2.72;;;;;;;20.07;58.41;99502.75;342552;28;1247;-67
2022/09/06 00:29:43;;;;;;;3.90;2.60;;;;;;;20.07;58.63;99502.75;342208;28;1018;-66
2022/09/06 00:29:55;;;;;;;4.78;3.08;;;;;;;20.08;58.53;99509.72;340973;28;1834;-66
2022/09/06 00:30:08;;;;;;;4.80;3.10;;;;;;;20.08;59.21;99509.72;342629;28;1756;-66
2022/09/06 00:30:20;;;;;;;3.38;3.03;;;;;;;20.08;59.20;99496.50;341707;28;1174;-67
2022/09/06 00:30:32;;;;;;;3.40;2.75;;;;;;;20.09;58.70;99506.13;342913;28;1713;-66
2022/09/06 00:30:44;;;;;;;3.50;2.80;;;;;;;20.11;59.15;99506.84;341222;28;1654;-67
2022/09/06 00:30:56;;;;;;;4.05;2.70;;;;;;;20.12;59.16;99511.16;342399;28;1871;-66
2022/09/06 00:31:18;;;;;;;3.65;2.70;;;;;;;20.13;59.00;99505.78;342383;28;1375;-66
2022/09/06 00:31:31;;;;;;;4.70;2.90;;;;;;;20.14;59.47;99509.25;340911;28;1407;-66
2022/09/06 00:31:43;;;;;;;4.45;2.90;;;;;;;20.16;58.88;99509.97;342421;28;1035;-66
2022/09/06 00:31:55;;;;;;;3.30;2.72;;;;;;;20.19;58.76;99507.13;341723;28;1783;-67
2022/09/06 00:32:07;;;;;;;3.08;2.72;;;;;;;20.18;58.95;99510.69;340642;28;2124;-67
2022/09/06 00:32:19;;;;;;;3.30;2.53;;;;;;;20.20;58.96;99508.78;341676;28;1596;-66
2022/09/06 00:32:32;;;;;;;4.30;2.60;;;;;;;20.22;58.85;99501.63;342001;28;1765;-66
2022/09/06 00:32:44;;;;;;;4.63;2.70;;;;;;;20.22;58.87;99506.91;342501;28;1048;-67
2022/09/06 00:32:56;;;;;;;4.65;2.80;;;;;;;20.23;58.88;99505.94;342582;28;1928;-66
2022/09/06 00:33:08;;;;;;;4.00;2.70;;;;;;;20.25;58.64;99501.38;342663;28;1844;-66
2022/09/06 00:33:20;;;;;;;4.50;2.50;;;;;;;20.26;58.62;99504.84;342291;28;1902;-66
2022/09/06 00:33:32;;;;;;;4.60;2.50;;;;;;;20.25;58.67;99511.94;342539;28;1317;-66
2022/09/06 00:33:44;;;;;;;4.60;2.60;;;;;;;20.24;59.22;99512.91;342692;28;1243;-66
2022/09/06 00:33:56;;;;;;;3.47;2.65;;;;;;;20.23;59.67;99505.94;341824;28;2374;-66
2022/09/06 00:34:08;;;;;;;4.55;2.70;;;;;;;20.21;59.92;99505.22;342415;28;1923;-66
2022/09/06 00:34:20;;;;;;;5.07;2.70;;;;;;;20.21;59.52;99504.38;341634;28;1887;-66
2022/09/06 00:34:32;;;;;;;4.70;2.80;;;;;;;20.23;59.10;99508.56;342542;28;1107;-66
2022/09/06 00:34:44;;;;;;;4.32;2.90;;;;;;;20.22;58.85;99512.19;343660;28;1695;-67
2022/09/06 00:34:56;;;;;;;5.25;2.97;;;;;;;20.23;58.83;99519.13;342626;28;1761;-67
2022/09/06 00:35:08;;;;;;;4.67;2.80;;;;;;;20.25;58.71;99511.94;341180;28;1118;-66
2022/09/06 00:35:23;;;;;;;3.80;2.63;;;;;;;20.25;58.71;99506.66;342463;28;1316;-67
2022/09/06 00:35:35;;;;;;;3.58;2.50;;;;;;;20.26;58.69;99508.34;342419;28;1041;-66
2022/09/06 00:35:48;;;;;;;3.75;2.63;;;;;;;20.26;58.67;99505.72;342083;28;1758;-67
2022/09/06 00:36:00;;;;;;;4.30;2.97;;;;;;;20.28;58.68;99514.38;342340;28;1935;-66
2022/09/06 00:36:13;;;;;;;3.85;2.95;;;;;;;20.30;58.63;99504.53;342948;28;1156;-67
2022/09/06 00:36:25;;;;;;;3.33;2.90;;;;;;;20.28;58.39;99502.94;341821;28;1333;-66
2022/09/06 00:36:37;;;;;;;3.35;2.80;;;;;;;20.29;58.36;99510.75;342487;28;1319;-67
2022/09/06 00:36:49;;;;;;;3.47;2.70;;;;;;;20.30;58.25;99507.16;342517;28;1254;-66
2022/09/06 00:37:01;;;;;;;3.42;2.60;;;;;;;20.31;57.93;99506.19;342039;28;1840;-66
2022/09/06 00:37:13;;;;;;;3.83;2.60;;;;;;;20.37;58.04;99512.81;342396;28;1945;-66
2022/09/06 00:37:25;;;;;;;3.90;2.65;;;;;;;20.34;57.83;99511.25;341977;28;1282;-67
2022/09/06 00:37:37;;;;;;;3.95;2.50;;;;;;;20.34;58.25;99511.25;342044;28;1358;-66
2022/09/06 00:37:50;;;;;;;3.67;2.50;;;;;;;20.35;58.71;99512.91;342128;28;1103;-67
2022/09/06 00:38:02;;;;;;;4.63;2.70;;;;;;;20.36;58.99;99519.03;342480;28;1685;-66
2022/09/06 00:38:14;;;;;;;4.78;2.90;;;;;;;20.35;58.53;99518.19;342073;28;2074;-66
2022/09/06 00:38:26;;;;;;;4.00;2.78;;;;;;;20.38;58.16;99516.28;341043;29;1087;-66
2022/09/06 00:38:39;;;;;;;3.30;2.80;;;;;;;20.39;58.26;99507.44;341073;29;1175;-66
2022/09/06 00:38:51;;;;;;;4.00;2.70;;;;;;;20.38;58.76;99508.38;341127;28;1797;-67
2022/09/06 00:39:04;;;;;;;3.92;2.60;;;;;;;20.37;58.63;99511.97;340895;29;1131;-67
2022/09/06 00:39:16;;;;;;;4.45;2.65;;;;;;;20.37;58.22;99515.44;340995;29;1188;-66
2022/09/06 00:39:28;;;;;;;4.47;2.60;;;;;;;20.36;58.08;99503.19;341778;28;1666;-66
2022/09/06 00:39:40;;;;;;;4.40;2.70;;;;;;;20.33;57.77;99512.19;342317;28;1497;-67
2022/09/06 00:39:52;;;;;;;4.78;2.75;;;;;;;20.33;57.72;99508.72;342487;28;1163;-67
2022/09/06 00:40:04;;;;;;;4.15;2.65;;;;;;;20.31;57.63;99506.19;342322;28;1618;-66
2022/09/06 00:40:17;;;;;;;4.18;2.40;;;;;;;20.33;57.83;99504.28;343406;28;1279;-66
2022/09/06 00:40:32;;;;;;;4.65;2.42;;;;;;;20.32;57.61;99505.25;342039;28;1104;-66
2022/09/06 00:40:44;;;;;;;5.00;2.58;;;;;;;20.35;57.42;99514.72;341281;28;1751;-67
2022/09/06 00:40:57;;;;;;;5.07;2.60;;;;;;;20.35;57.39;99509.44;342713;28;1735;-66
2022/09/06 00:41:11;;;;;;;4.10;2.50;;;;;;;20.37;57.25;99509.34;342442;28;1035;-66
2022/09/06 00:41:24;;;;;;;3.30;2.47;;;;;;;20.35;57.39;99507.66;341261;28;1281;-66
2022/09/06 00:41:36;;;;;;;3.00;2.45;;;;;;;20.38;57.37;99505.72;341275;28;1116;-66
2022/09/06 00:41:48;;;;;;;2.97;2.50;;;;;;;20.38;57.18;99505.72;341326;28;1272;-66
2022/09/06 00:42:00;;;;;;;2.88;2.45;;;;;;;20.39;57.32;99502.97;342600;28;1736;-66
2022/09/06 00:42:12;;;;;;;4.35;2.40;;;;;;;20.39;57.15;99502.16;342575;28;1037;-67
2022/09/06 00:42:24;;;;;;;5.40;2.70;;;;;;;20.39;57.05;99497.69;341996;28;1559;-66
2022/09/06 00:42:36;;;;;;;6.88;2.95;;;;;;;20.39;57.11;99502.16;341611;28;1588;-67
2022/09/06 00:42:48;;;;;;;5.13;2.78;;;;;;;20.39;57.66;99507.44;342305;28;1119;-67
2022/09/06 00:43:00;;;;;;;4.97;2.63;;;;;;;20.39;57.52;99504.78;343426;28;1213;-66
2022/09/06 00:43:12;;;;;;;3.40;2.45;;;;;;;20.40;57.38;99509.09;343240;28;1103;-66
2022/09/06 00:43:24;;;;;;;4.55;2.40;;;;;;;20.35;56.55;99499.72;341258;28;1344;-67
2022/09/06 00:43:36;;;;;;;6.03;2.47;;;;;;;20.36;56.59;99508.47;341177;28;1103;-67
2022/09/06 00:43:49;;;;;;;5.53;2.60;;;;;;;20.36;56.92;99508.47;341251;28;1412;-67
2022/09/06 00:44:01;;;;;;;3.70;2.60;;;;;;;20.35;57.24;99507.66;341972;28;1847;-66
2022/09/06 00:44:13;;;;;;;2.95;2.45;;;;;;;20.36;57.21;99508.47;342843;28;1917;-67
2022/09/06 00:44:25;;;;;;;3.75;2.42;;;;;;;20.33;57.96;99504.28;342223;28;1917;-67
2022/09/06 00:44:38;;;;;;;4.20;2.40;;;;;;;20.33;58.12;99506.91;343407;28;1286;-67
2022/09/06 00:44:50;;;;;;;4.30;2.40;;;;;;;20.31;57.42;99510.63;343539;28;1181;-67
2022/09/06 00:45:04;;;;;;;3.58;2.38;;;;;;;20.32;57.15;99507.88;342535;28;1685;-66
2022/09/06 00:45:17;;;;;;;4.68;2.60;;;;;;;20.32;57.47;99507.88;342610;28;1157;-67
2022/09/06 00:45:30;;;;;;;5.00;2.78;;;;;;;20.34;57.27;99510.38;342042;28;1574;-66
2022/09/06 00:45:42;;;;;;;3.47;2.60;;;;;;;20.34;57.00;99505.97;342459;28;1036;-66
2022/09/06 00:45:54;;;;;;;5.20;2.65;;;;;;;20.32;56.99;99510.53;340613;28;2258;-67
2022/09/06 00:46:09;;;;;;;5.40;2.65;;;;;;;20.38;57.14;99508.38;342053;28;1813;-67
2022/09/06 00:46:26;;;;;;;3.03;2.42;;;;;;;20.40;57.94;99509.09;341555;28;1261;-66
2022/09/06 00:46:41;;;;;;;2.50;2.30;;;;;;;20.37;57.19;99514.63;341476;28;1270;-66
2022/09/06 00:46:54;;;;;;;2.60;2.40;;;;;;;20.37;57.37;99504.91;341249;28;1815;-67
2022/09/06 00:47:07;;;;;;;3.03;2.58;;;;;;;20.38;57.18;99505.72;342746;28;1691;-67
2022/09/06 00:47:19;;;;;;;2.80;2.45;;;;;;;20.39;57.47;99502.97;341944;28;1190;-67
2022/09/06 00:47:33;;;;;;;2.90;2.53;;;;;;;20.41;57.02;99508.16;341271;28;1066;-66
2022/09/06 00:47:45;;;;;;;2.85;2.42;;;;;;;20.41;57.17;99510.78;341670;28;1275;-67
2022/09/06 00:47:59;;;;;;;3.72;2.38;;;;;;;20.39;57.66;99502.16;342088;28;1896;-67
2022/09/06 00:48:11;;;;;;;4.03;2.40;;;;;;;20.39;58.20;99502.16;342687;28;1661;-67
2022/09/06 00:48:24;;;;;;;4.53;2.35;;;;;;;20.36;58.39;99508.47;343051;28;1357;-66
2022/09/06 00:48:38;;;;;;;3.88;2.28;;;;;;;20.28;58.53;99502.94;343804;28;1256;-66
2022/09/06 00:48:55;;;;;;;3.33;2.45;;;;;;;20.27;58.68;99501.28;343785;28;1031;-66
2022/09/06 00:49:31;;;;;;;3.00;2.70;;;;;;;20.32;58.26;99501.75;341464;28;1738;-67
2022/09/06 00:49:48;;;;;;;3.17;2.50;;;;;;;20.35;58.03;99501.53;340822;28;1495;-67
2022/09/06 00:50:02;;;;;;;3.08;2.50;;;;;;;20.38;58.08;99511.84;342120;28;1869;-66
2022/09/06 00:50:16;;;;;;;5.25;2.80;;;;;;;20.39;58.29;99510.06;343184;28;2517;-66
2022/09/06 00:50:28;;;;;;;5.22;2.83;;;;;;;20.40;58.07;99509.09;341130;29;1219;-66
2022/09/06 00:50:42;;;;;;;3.83;2.90;;;;;;;20.44;57.80;99507.91;341441;28;2127;-66
2022/09/06 00:50:59;;;;;;;3.60;2.75;;;;;;;20.46;57.57;99508.63;341420;28;1842;-66
2022/09/06 00:51:14;;;;;;;4.10;2.63;;;;;;;20.46;58.47;99508.63;341124;28;1261;-67
2022/09/06 00:51:28;;;;;;;4.22;2.80;;;;;;;20.42;58.32;99508.00;341027;29;1392;-66
2022/09/06 00:51:41;;;;;;;4.85;2.95;;;;;;;20.44;58.28;99505.25;341084;28;1191;-66
2022/09/06 00:51:57;;;;;;;4.40;2.88;;;;;;;20.45;58.15;99512.25;341177;28;1620;-66
2022/09/06 00:52:12;;;;;;;3.15;2.63;;;;;;;20.44;58.11;99506.09;341966;28;2011;-67
2022/09/06 00:52:26;;;;;;;3.58;2.63;;;;;;;20.44;57.77;99505.25;342683;28;1212;-67
2022/09/06 00:52:40;;;;;;;5.10;2.80;;;;;;;20.44;58.09;99507.91;342158;28;1870;-66
2022/09/06 00:52:52;;;;;;;5.22;3.00;;;;;;;20.44;57.98;99506.09;343769;28;1158;-67
2022/09/06 00:53:05;;;;;;;3.95;2.92;;;;;;;20.41;58.48;99510.78;342514;28;1868;-66
2022/09/06 00:53:17;;;;;;;4.30;2.80;;;;;;;20.43;58.49;99504.44;341540;28;2030;-67
2022/09/06 00:53:30;;;;;;;5.05;2.70;;;;;;;20.42;58.88;99509.81;343314;28;1310;-67
2022/09/06 00:53:43;;;;;;;4.28;2.80;;;;;;;20.44;58.56;99507.91;343606;28;1075;-66
2022/09/06 00:53:56;;;;;;;3.20;2.90;;;;;;;20.44;58.34;99510.53;342327;28;1756;-66
2022/09/06 00:54:09;;;;;;;3.30;3.00;;;;;;;20.44;58.31;99505.25;342326;28;1631;-66
2022/09/06 00:54:21;;;;;;;3.10;2.80;;;;;;;20.44;58.45;99510.53;343088;28;1332;-67
2022/09/06 00:54:33;;;;;;;3.08;2.67;;;;;;;20.44;58.53;99505.25;342303;28;1169;-66
2022/09/06 00:54:47;;;;;;;3.10;2.60;;;;;;;20.45;58.15;99507.78;342260;28;1042;-66
2022/09/06 00:54:59;;;;;;;3.00;2.70;;;;;;;20.48;58.15;99501.44;342212;28;1753;-67
2022/09/06 00:55:12;;;;;;;3.65;2.72;;;;;;;20.49;58.09;99503.13;343319;28;1969;-66
2022/09/06 00:55:25;;;;;;;4.03;2.90;;;;;;;20.49;58.00;99497.84;342704;28;2075;-66
2022/09/06 00:55:37;;;;;;;4.03;2.80;;;;;;;20.49;58.40;99501.31;342506;28;1629;-66
2022/09/06 00:55:49;;;;;;;4.68;2.88;;;;;;;20.49;57.83;99503.13;341616;28;1786;-67
2022/09/06 00:56:02;;;;;;;4.88;2.90;;;;;;;20.49;58.24;99503.13;342112;28;1582;-66
2022/09/06 00:56:14;;;;;;;4.88;3.00;;;;;;;20.49;58.24;99503.97;341767;28;1158;-66
2022/09/06 00:56:26;;;;;;;4.97;2.90;;;;;;;20.50;58.11;99504.78;342318;28;1131;-66
2022/09/06 00:56:42;;;;;;;4.47;2.85;;;;;;;20.48;58.43;99504.06;342185;28;1114;-67
2022/09/06 00:56:54;;;;;;;4.10;2.80;;;;;;;20.46;59.33;99501.53;341920;28;1825;-66
2022/09/06 00:57:06;;;;;;;5.10;3.00;;;;;;;20.47;59.39;99505.03;342899;28;1690;-67
2022/09/06 00:57:18;;;;;;;4.78;2.95;;;;;;;20.48;59.30;99506.72;342220;28;1244;-66
2022/09/06 00:57:31;;;;;;;4.03;2.67;;;;;;;20.48;58.85;99504.06;342336;28;1090;-67
2022/09/06 00:57:45;;;;;;;2.90;2.65;;;;;;;20.49;58.51;99511.03;342376;28;1066;-67
2022/09/06 00:57:57;;;;;;;3.50;2.67;;;;;;;20.48;58.29;99504.94;342161;28;1832;-67
2022/09/06 00:58:09;;;;;;;5.65;2.72;;;;;;;20.48;58.63;99507.56;343329;28;1572;-66
2022/09/06 00:58:22;;;;;;;4.90;2.72;;;;;;;20.49;58.64;99503.13;342955;28;1251;-67
2022/09/06 00:58:35;;;;;;;5.85;2.90;;;;;;;20.50;58.64;99510.94;341898;28;2093;-66
2022/09/06 00:58:47;;;;;;;4.97;3.08;;;;;;;20.50;58.77;99505.66;341058;28;1706;-66
2022/09/06 00:59:00;;;;;;;4.30;3.00;;;;;;;20.52;58.58;99510.78;341701;28;1793;-66
2022/09/06 00:59:13;;;;;;;5.05;2.92;;;;;;;20.53;58.65;99504.56;342860;28;2028;-66
2022/09/06 00:59:29;;;;;;;4.70;2.80;;;;;;;20.54;58.83;99506.25;342377;28;1292;-66
2022/09/06 00:59:43;;;;;;;4.82;2.60;;;;;;;20.52;58.89;99503.75;343226;28;1940;-67
2022/09/06 00:59:55;;;;;;;4.55;2.80;;;;;;;20.53;58.59;99499.28;343721;28;1172;-66
2022/09/06 01:00:08;;;;;;;3.60;2.80;;;;;;;20.54;58.66;99500.97;343711;28;1256;-66
2022/09/06 01:00:21;;;;;;;3.10;2.80;;;;;;;20.53;58.61;99500.13;342811;28;1286;-67
2022/09/06 01:00:33;;;;;;;3.30;2.80;;;;;;;20.51;58.35;99501.22;341733;28;2331;-67
2022/09/06 01:00:45;;;;;;;3.17;2.80;;;;;;;20.53;58.53;99509.84;340963;28;2137;-66
2022/09/06 01:00:57;;;;;;;3.00;2.70;;;;;;;20.51;58.64;99501.22;342528;28;1495;-67
2022/09/06 01:01:09;;;;;;;5.35;3.00;;;;;;;20.52;58.55;99501.09;342156;28;1210;-67
2022/09/06 01:01:21;;;;;;;5.70;3.10;;;;;;;20.52;58.78;99503.75;341253;28;1583;-67
2022/09/06 01:01:34;;;;;;;3.70;2.80;;;;;;;20.53;58.59;99504.56;341166;28;1848;-66
2022/09/06 01:01:46;;;;;;;3.78;2.85;;;;;;;20.49;58.51;99498.69;341336;28;1278;-66
2022/09/06 01:01:58;;;;;;;3.63;2.95;;;;;;;20.51;58.46;99502.03;341551;28;1694;-67
2022/09/06 01:02:11;;;;;;;4.05;2.92;;;;;;;20.51;58.55;99502.03;342147;28;2009;-66
2022/09/06 01:02:23;;;;;;;4.90;2.67;;;;;;;20.52;58.45;99503.75;341433;28;1304;-66